createdAt,value
2022-12-22T00:01:55.661Z,100522.34
2022-12-22T00:04:42.205Z,100511.06
2022-12-22T00:07:27.566Z,100511.06
2022-12-22T00:10:13.029Z,100503.25
2022-12-22T00:12:58.809Z,100494.56
2022-12-22T00:15:44.946Z,100486.75
2022-12-22T00:18:34.507Z,100480.69
2022-12-22T00:21:20.261Z,100478.97
2022-12-22T00:24:05.644Z,100477.22
2022-12-22T00:26:53.077Z,100472.88
2022-12-22T00:29:38.906Z,100469.41
2022-12-22T00:32:24.795Z,100471.09
2022-12-22T00:35:10.908Z,100464.16
2022-12-22T00:37:56.985Z,100457.16
2022-12-22T00:40:46.641Z,100465.00
2022-12-22T00:43:32.286Z,100466.75
2022-12-22T00:46:19.909Z,100470.22
2022-12-22T00:49:05.809Z,100466.72
2022-12-22T00:51:51.639Z,100461.53
2022-12-22T00:54:38.455Z,100470.16
2022-12-22T00:57:24.264Z,100459.75
2022-12-22T01:00:10.713Z,100458.88
2022-12-22T01:02:56.294Z,100470.97
2022-12-22T01:05:42.060Z,100465.72
2022-12-22T01:08:29.679Z,100460.50
2022-12-22T01:11:15.681Z,100460.47
2022-12-22T01:14:01.039Z,100462.22
2022-12-22T01:16:46.838Z,100457.88
2022-12-22T01:19:32.476Z,100450.91
2022-12-22T01:22:17.945Z,100443.97
2022-12-22T01:25:04.226Z,100438.72
2022-12-22T01:27:49.965Z,100443.13
2022-12-22T01:30:35.541Z,100449.19
2022-12-22T01:33:21.340Z,100438.78
2022-12-22T01:36:07.057Z,100440.53
2022-12-22T01:38:53.111Z,100439.69
2022-12-22T01:41:40.314Z,100441.41
2022-12-22T01:44:37.052Z,100429.31
2022-12-22T01:47:47.682Z,100421.53
2022-12-22T01:50:36.766Z,100419.81
2022-12-22T01:53:26.684Z,100421.53
2022-12-22T01:56:12.825Z,100412.91
2022-12-22T01:59:05.064Z,100412.03
2022-12-22T02:01:51.514Z,100399.06
2022-12-22T02:04:39.397Z,100405.97
2022-12-22T02:07:52.062Z,100393.88
2022-12-22T02:10:59.599Z,100395.59
2022-12-22T02:14:04.344Z,100385.22
2022-12-22T02:17:19.588Z,100380.94
2022-12-22T02:20:33.088Z,100380.06
2022-12-22T02:23:40.154Z,100377.47
2022-12-22T02:26:47.437Z,100372.28
2022-12-22T02:29:37.214Z,100368.81
2022-12-22T02:32:23.177Z,100374.03
2022-12-22T02:35:08.721Z,100365.41
2022-12-22T02:38:35.883Z,100365.41
2022-12-22T02:42:14.558Z,100373.19
2022-12-22T02:45:40.283Z,100369.75
2022-12-22T02:48:57.324Z,100361.97
2022-12-22T02:51:47.207Z,100349.88
2022-12-22T02:54:35.441Z,100356.81
2022-12-22T02:57:27.258Z,100352.47
2022-12-22T03:00:12.911Z,100345.56
2022-12-22T03:02:58.360Z,100342.97
2022-12-22T03:05:43.779Z,100345.59
2022-12-22T03:08:29.265Z,100338.66
2022-12-22T03:11:14.771Z,100348.19
2022-12-22T03:14:00.197Z,100354.28
2022-12-22T03:16:45.725Z,100353.44
2022-12-22T03:19:31.112Z,100354.28
2022-12-22T03:22:16.651Z,100357.75
2022-12-22T03:25:02.192Z,100356.03
2022-12-22T03:27:29.092Z,100356.06
2022-12-22T03:29:55.999Z,100357.78
2022-12-22T03:32:22.915Z,100353.47
2022-12-22T03:34:49.792Z,100348.31
2022-12-22T03:37:16.686Z,100342.22
2022-12-22T03:39:43.595Z,100345.75
2022-12-22T03:42:32.156Z,100329.31
2022-12-22T03:45:37.341Z,100334.50
2022-12-22T03:48:04.255Z,100331.91
2022-12-22T03:50:31.138Z,100327.56
2022-12-22T03:52:58.027Z,100318.03
2022-12-22T03:55:24.992Z,100319.75
2022-12-22T03:57:51.866Z,100323.25
2022-12-22T04:00:19.558Z,100318.91
2022-12-22T04:02:46.532Z,100309.34
2022-12-22T04:05:13.517Z,100310.25
2022-12-22T04:07:40.486Z,100311.97
2022-12-22T04:10:27.356Z,100302.41
2022-12-22T04:12:54.375Z,100298.97
2022-12-22T04:15:30.032Z,100291.13
2022-12-22T04:17:57.603Z,100295.44
2022-12-22T04:20:27.004Z,100292.88
2022-12-22T04:22:55.502Z,100279.88
2022-12-22T04:25:24.085Z,100285.06
2022-12-22T04:27:50.994Z,100284.19
2022-12-22T04:30:18.207Z,100276.41
2022-12-22T04:32:45.180Z,100273.81
2022-12-22T04:35:12.124Z,100278.13
2022-12-22T04:37:39.034Z,100272.09
2022-12-22T04:40:06.758Z,100277.28
2022-12-22T04:42:33.693Z,100272.09
2022-12-22T04:45:00.581Z,100274.66
2022-12-22T04:47:27.504Z,100268.63
2022-12-22T04:49:55.724Z,100264.25
2022-12-22T04:52:23.195Z,100266.88
2022-12-22T04:54:50.115Z,100266.88
2022-12-22T04:57:17.063Z,100263.41
2022-12-22T04:59:44.052Z,100256.47
2022-12-22T05:02:11.143Z,100249.56
2022-12-22T05:04:38.455Z,100259.94
2022-12-22T05:07:05.609Z,100248.66
2022-12-22T05:09:32.497Z,100238.28
2022-12-22T05:11:59.474Z,100246.06
2022-12-22T05:14:26.363Z,100240.03
2022-12-22T05:16:53.350Z,100247.81
2022-12-22T05:19:20.539Z,100240.88
2022-12-22T05:21:47.417Z,100234.81
2022-12-22T05:24:14.305Z,100233.97
2022-12-22T05:26:41.176Z,100222.69
2022-12-22T05:29:08.062Z,100227.03
2022-12-22T05:31:35.563Z,100232.25
2022-12-22T05:34:02.442Z,100219.25
2022-12-22T05:36:29.332Z,100213.16
2022-12-22T05:38:56.194Z,100212.31
2022-12-22T05:41:23.088Z,100206.25
2022-12-22T05:43:49.942Z,100187.19
2022-12-22T05:46:16.899Z,100192.41
2022-12-22T05:48:43.823Z,100190.69
2022-12-22T05:51:11.204Z,100180.28
2022-12-22T05:53:39.017Z,100177.69
2022-12-22T05:56:07.403Z,100177.69
2022-12-22T05:58:36.863Z,100170.72
2022-12-22T06:01:04.004Z,100169.03
2022-12-22T06:03:31.626Z,100165.56
2022-12-22T06:05:59.298Z,100156.88
2022-12-22T06:08:26.835Z,100160.38
2022-12-22T06:10:59.979Z,100159.47
2022-12-22T06:13:27.190Z,100149.94
2022-12-22T06:15:54.153Z,100153.44
2022-12-22T06:18:21.331Z,100140.44
2022-12-22T06:20:48.285Z,100142.16
2022-12-22T06:23:16.046Z,100143.88
2022-12-22T06:25:42.933Z,100140.41
2022-12-22T06:28:09.839Z,100133.50
2022-12-22T06:30:36.700Z,100136.97
2022-12-22T06:33:03.716Z,100122.22
2022-12-22T06:35:30.595Z,100126.56
2022-12-22T06:37:57.480Z,100123.09
2022-12-22T06:40:24.347Z,100121.38
2022-12-22T06:43:09.856Z,100124.81
2022-12-22T06:45:40.396Z,100123.09
2022-12-22T06:48:09.052Z,100123.09
2022-12-22T06:50:35.965Z,100120.47
2022-12-22T06:53:03.962Z,100123.94
2022-12-22T06:55:31.046Z,100118.75
2022-12-22T06:57:58.007Z,100111.81
2022-12-22T07:00:25.086Z,100124.81
2022-12-22T07:02:52.203Z,100118.72
2022-12-22T07:05:19.305Z,100119.59
2022-12-22T07:07:46.501Z,100115.28
2022-12-22T07:10:13.590Z,100119.59
2022-12-22T07:12:40.527Z,100117.88
2022-12-22T07:15:08.794Z,100118.75
2022-12-22T07:17:35.693Z,100117.84
2022-12-22T07:20:02.654Z,100113.53
2022-12-22T07:22:30.672Z,100122.19
2022-12-22T07:24:59.293Z,100114.41
2022-12-22T07:27:26.435Z,100110.06
2022-12-22T07:29:53.304Z,100084.94
2022-12-22T07:32:20.198Z,100099.63
2022-12-22T07:34:47.125Z,100086.63
2022-12-22T07:37:14.036Z,100098.75
2022-12-22T07:39:40.981Z,100096.16
2022-12-22T07:42:30.254Z,100095.28
2022-12-22T07:44:57.147Z,100096.16
2022-12-22T07:47:25.401Z,100100.50
2022-12-22T07:50:14.029Z,100097.91
2022-12-22T07:52:40.966Z,100093.53
2022-12-22T07:55:08.923Z,100091.81
2022-12-22T07:57:36.033Z,100089.19
2022-12-22T08:00:03.814Z,100092.66
2022-12-22T08:02:39.677Z,100091.81
2022-12-22T08:05:08.959Z,100087.47
2022-12-22T08:07:36.103Z,100085.72
2022-12-22T08:10:03.026Z,100088.34
2022-12-22T08:12:30.255Z,100084.00
2022-12-22T08:14:57.197Z,100083.97
2022-12-22T08:17:24.100Z,100084.84
2022-12-22T08:19:50.939Z,100080.50
2022-12-22T08:22:17.819Z,100084.81
2022-12-22T08:24:44.691Z,100085.69
2022-12-22T08:27:22.273Z,100084.81
2022-12-22T08:29:58.164Z,100090.00
2022-12-22T08:32:25.113Z,100088.28
2022-12-22T08:34:53.105Z,100082.19
2022-12-22T08:37:25.223Z,100083.03
2022-12-22T08:39:59.006Z,100074.34
2022-12-22T08:42:26.796Z,100080.41
2022-12-22T08:44:53.705Z,100078.69
2022-12-22T08:47:21.555Z,100075.22
2022-12-22T08:49:49.732Z,100070.84
2022-12-22T08:52:18.656Z,100057.81
2022-12-22T08:54:46.158Z,100056.06
2022-12-22T08:57:13.038Z,100051.75
2022-12-22T08:59:39.921Z,100048.22
2022-12-22T09:02:07.310Z,100049.97
2022-12-22T09:04:34.634Z,100055.16
2022-12-22T09:07:02.710Z,100068.16
2022-12-22T09:09:33.095Z,100073.38
2022-12-22T09:12:00.981Z,100081.16
2022-12-22T09:14:28.930Z,100080.28
2022-12-22T09:16:55.947Z,100076.81
2022-12-22T09:19:22.870Z,100085.50
2022-12-22T09:21:49.823Z,100078.53
2022-12-22T09:24:16.929Z,100069.84
2022-12-22T09:26:43.840Z,100070.69
2022-12-22T09:29:11.049Z,100060.28
2022-12-22T09:31:38.012Z,100077.63
2022-12-22T09:34:04.923Z,100071.53
2022-12-22T09:36:32.240Z,100067.19
2022-12-22T09:39:04.367Z,100061.13
2022-12-22T09:41:51.201Z,100057.59
2022-12-22T09:44:33.847Z,100044.56
2022-12-22T09:47:05.112Z,100042.78
2022-12-22T09:49:32.098Z,100030.63
2022-12-22T09:52:04.343Z,100021.03
2022-12-22T09:54:31.555Z,100022.78
2022-12-22T09:56:58.643Z,100013.16
2022-12-22T09:59:30.089Z,100025.28
2022-12-22T10:02:04.393Z,100027.81
2022-12-22T10:05:14.921Z,100029.53
2022-12-22T10:07:42.644Z,100020.88
2022-12-22T10:10:31.055Z,100030.47
2022-12-22T10:13:01.185Z,100024.31
2022-12-22T10:15:36.437Z,100005.25
2022-12-22T10:18:29.976Z,100010.44
2022-12-22T10:21:13.216Z,100003.47
2022-12-22T10:23:48.157Z,100007.84
2022-12-22T10:26:31.428Z,100009.53
2022-12-22T10:29:06.552Z,100000.00
2022-12-22T10:31:37.104Z,99999.13
2022-12-22T10:34:16.602Z,99997.34
2022-12-22T10:36:49.941Z,99994.72
2022-12-22T10:39:24.340Z,99992.94
2022-12-22T10:41:55.203Z,99992.00
2022-12-22T10:44:29.027Z,99984.13
2022-12-22T10:46:58.858Z,99977.22
2022-12-22T10:52:30.435Z,99979.66
2022-12-22T10:55:28.563Z,99975.31
2022-12-22T10:58:28.348Z,99981.38
2022-12-22T11:01:04.873Z,99968.34
2022-12-22T11:03:32.736Z,99970.88
2022-12-22T11:06:01.268Z,99975.25
2022-12-22T11:08:30.144Z,99976.09
2022-12-22T11:11:05.763Z,99976.09
2022-12-22T11:13:45.468Z,99977.81
2022-12-22T11:16:30.344Z,99972.59
2022-12-22T11:19:11.306Z,99972.63
2022-12-22T11:22:04.153Z,99970.91
2022-12-22T11:24:40.763Z,99974.38
2022-12-22T11:27:33.783Z,99954.44
2022-12-22T11:30:36.325Z,99957.84
2022-12-22T11:33:29.741Z,99961.34
2022-12-22T11:36:15.627Z,99962.25
2022-12-22T11:39:00.590Z,99956.16
2022-12-22T11:42:10.447Z,99951.78
2022-12-22T11:45:09.490Z,99959.66
2022-12-22T11:48:01.069Z,99950.06
2022-12-22T11:50:58.995Z,99945.72
2022-12-22T11:53:48.934Z,99943.91
2022-12-22T11:56:24.485Z,99941.34
2022-12-22T11:59:47.337Z,99935.28
2022-12-22T12:02:40.343Z,99938.72
2022-12-22T12:05:30.868Z,99937.84
2022-12-22T12:08:29.486Z,99931.72
2022-12-22T12:11:40.080Z,99919.66
2022-12-22T12:14:39.512Z,99932.56
2022-12-22T12:17:50.070Z,99931.69
2022-12-22T12:20:43.552Z,99929.91
2022-12-22T12:23:29.218Z,99904.81
2022-12-22T12:26:17.154Z,99916.00
2022-12-22T12:29:03.378Z,99915.97
2022-12-22T12:31:38.431Z,99915.97
2022-12-22T12:34:10.458Z,99916.81
2022-12-22T12:37:03.944Z,99915.94
2022-12-22T12:40:16.258Z,99909.06
2022-12-22T12:42:45.512Z,99912.47
2022-12-22T12:45:43.066Z,99911.56
2022-12-22T12:48:22.258Z,99919.38
2022-12-22T12:50:53.957Z,99915.88
2022-12-22T12:53:23.799Z,99917.69
2022-12-22T12:55:52.021Z,99926.38
2022-12-22T12:58:43.391Z,99928.97
2022-12-22T13:01:42.093Z,99912.47
2022-12-22T13:04:09.791Z,99912.47
2022-12-22T13:06:53.530Z,99918.59
2022-12-22T13:09:49.942Z,99915.06
2022-12-22T13:12:48.312Z,99932.50
2022-12-22T13:15:33.643Z,99929.88
2022-12-22T13:18:29.059Z,99929.88
2022-12-22T13:21:50.930Z,99926.41
2022-12-22T13:24:23.659Z,99937.69
2022-12-22T13:26:46.054Z,99939.50
2022-12-22T13:29:27.616Z,99949.88
2022-12-22T13:32:02.824Z,99956.91
2022-12-22T13:35:47.076Z,99960.38
2022-12-22T13:38:32.215Z,99972.56
2022-12-22T13:41:03.091Z,99970.84
2022-12-22T13:43:32.249Z,99967.38
2022-12-22T13:46:02.530Z,99969.13
2022-12-22T13:48:44.644Z,99965.72
2022-12-22T13:51:27.038Z,99974.41
2022-12-22T13:54:10.922Z,99980.50
2022-12-22T13:56:54.230Z,99983.13
2022-12-22T13:59:36.272Z,99987.47
2022-12-22T14:02:15.507Z,100000.50
2022-12-22T14:04:52.579Z,99996.19
2022-12-22T14:07:21.267Z,100000.56
2022-12-22T14:09:50.833Z,99996.25
2022-12-22T14:12:42.947Z,100008.38
2022-12-22T14:15:18.730Z,100004.09
2022-12-22T14:17:52.161Z,100001.53
2022-12-22T14:20:32.235Z,100000.69
2022-12-22T14:23:18.519Z,99978.97
2022-12-22T14:25:47.710Z,99987.66
2022-12-22T14:28:27.855Z,100003.28
2022-12-22T14:30:58.696Z,100015.50
2022-12-22T14:33:28.225Z,100019.81
2022-12-22T14:36:20.741Z,100012.91
2022-12-22T14:38:54.818Z,100022.47
2022-12-22T14:41:41.834Z,100026.81
2022-12-22T14:44:20.306Z,100020.78
2022-12-22T14:47:20.439Z,100020.75
2022-12-22T14:50:02.196Z,100026.84
2022-12-22T14:52:43.836Z,100033.84
2022-12-22T14:55:26.850Z,100045.16
2022-12-22T14:58:03.212Z,100051.28
2022-12-22T15:00:40.925Z,100047.81
2022-12-22T15:03:31.709Z,100058.25
2022-12-22T15:06:26.435Z,100063.47
2022-12-22T15:09:39.652Z,100056.59
2022-12-22T15:12:15.108Z,100053.97
2022-12-22T15:14:42.549Z,100043.56
2022-12-22T15:17:22.471Z,100051.41
2022-12-22T15:19:50.465Z,100056.59
2022-12-22T15:22:17.424Z,100060.09
2022-12-22T15:24:44.383Z,100066.16
2022-12-22T15:27:11.283Z,100066.16
2022-12-22T15:29:38.239Z,100067.06
2022-12-22T15:32:10.924Z,100062.78
2022-12-22T15:34:38.171Z,100076.63
2022-12-22T15:37:05.047Z,100070.53
2022-12-22T15:39:31.932Z,100081.84
2022-12-22T15:41:58.829Z,100079.25
2022-12-22T15:44:25.723Z,100081.03
2022-12-22T15:46:57.550Z,100096.66
2022-12-22T15:49:27.244Z,100098.41
2022-12-22T15:52:01.837Z,100095.84
2022-12-22T15:54:33.032Z,100097.56
2022-12-22T15:57:01.087Z,100104.53
2022-12-22T15:59:29.126Z,100108.88
2022-12-22T16:02:01.348Z,100097.59
2022-12-22T16:04:28.620Z,100102.81
2022-12-22T16:06:55.933Z,100108.06
2022-12-22T16:09:38.076Z,100105.47
2022-12-22T16:12:17.833Z,100107.25
2022-12-22T16:14:50.872Z,100115.03
2022-12-22T16:17:21.722Z,100108.13
2022-12-22T16:19:48.995Z,100101.22
2022-12-22T16:22:20.263Z,100103.84
2022-12-22T16:24:48.921Z,100106.47
2022-12-22T16:27:16.255Z,100103.00
2022-12-22T16:29:47.156Z,100106.50
2022-12-22T16:32:19.729Z,100119.53
2022-12-22T16:34:47.180Z,100121.28
2022-12-22T16:37:14.105Z,100115.22
2022-12-22T16:39:41.201Z,100125.66
2022-12-22T16:45:04.341Z,100116.16
2022-12-22T16:47:36.121Z,100126.56
2022-12-22T16:50:03.763Z,100135.19
2022-12-22T16:52:39.075Z,100131.75
2022-12-22T16:55:21.070Z,100133.50
2022-12-22T16:57:48.279Z,100136.94
2022-12-22T17:00:19.456Z,100143.03
2022-12-22T17:02:51.597Z,100143.03
2022-12-22T17:05:47.074Z,100147.34
2022-12-22T17:08:28.057Z,100154.25
2022-12-22T17:10:58.350Z,100162.91
2022-12-22T17:13:26.126Z,100156.00
2022-12-22T17:15:53.231Z,100158.56
2022-12-22T17:18:23.732Z,100155.13
2022-12-22T17:20:57.518Z,100152.50
2022-12-22T17:23:28.659Z,100165.50
2022-12-22T17:25:55.575Z,100159.44
2022-12-22T17:28:22.483Z,100160.28
2022-12-22T17:30:49.422Z,100166.34
2022-12-22T17:33:17.211Z,100174.13
2022-12-22T17:35:45.930Z,100179.31
2022-12-22T17:38:19.594Z,100172.41
2022-12-22T17:40:48.415Z,100176.72
2022-12-22T17:43:18.346Z,100183.66
2022-12-22T17:45:46.095Z,100193.19
2022-12-22T17:48:16.839Z,100175.84
2022-12-22T17:50:50.300Z,100181.91
2022-12-22T17:53:21.178Z,100189.72
2022-12-22T17:58:35.947Z,100188.84
2022-12-22T18:01:02.865Z,100188.84
2022-12-22T18:03:29.795Z,100184.53
2022-12-22T18:05:56.744Z,100181.91
2022-12-22T18:08:23.664Z,100187.94
2022-12-22T18:10:50.575Z,100186.22
2022-12-22T18:13:22.577Z,100187.06
2022-12-22T18:15:49.595Z,100189.69
2022-12-22T18:18:18.215Z,100171.44
2022-12-22T18:20:47.043Z,100188.81
2022-12-22T18:23:34.764Z,100182.69
2022-12-22T18:26:01.781Z,100184.44
2022-12-22T18:28:28.691Z,100193.13
2022-12-22T18:30:55.585Z,100192.25
2022-12-22T18:33:22.470Z,100193.13
2022-12-22T18:35:49.474Z,100183.59
2022-12-22T18:38:30.721Z,100180.13
2022-12-22T18:40:57.754Z,100187.91
2022-12-22T18:43:24.809Z,100185.31
2022-12-22T18:45:51.787Z,100183.59
2022-12-22T18:48:18.718Z,100181.84
2022-12-22T18:50:45.654Z,100190.50
2022-12-22T18:53:32.233Z,100188.78
2022-12-22T18:55:59.531Z,100191.34
2022-12-22T18:58:27.847Z,100200.88
2022-12-22T19:00:56.084Z,100191.34
2022-12-22T19:03:29.147Z,100187.91
2022-12-22T19:05:56.957Z,100184.44
2022-12-22T19:08:26.681Z,100165.41
2022-12-22T19:10:59.794Z,100171.44
2022-12-22T19:13:34.741Z,100177.50
2022-12-22T19:16:02.227Z,100177.50
2022-12-22T19:18:29.196Z,100179.22
2022-12-22T19:20:56.891Z,100183.53
2022-12-22T19:23:25.659Z,100183.53
2022-12-22T19:26:08.862Z,100184.41
2022-12-22T19:28:42.832Z,100184.41
2022-12-22T19:31:21.391Z,100187.88
2022-12-22T19:33:48.651Z,100180.94
2022-12-22T19:36:22.390Z,100179.19
2022-12-22T19:38:51.071Z,100180.94
2022-12-22T19:41:45.094Z,100160.13
2022-12-22T19:44:25.589Z,100174.00
2022-12-22T19:46:54.089Z,100179.16
2022-12-22T19:49:29.321Z,100188.69
2022-12-22T19:51:56.781Z,100187.81
2022-12-22T19:54:24.093Z,100183.47
2022-12-22T19:56:56.148Z,100172.25
2022-12-22T19:59:38.182Z,100184.38
2022-12-22T20:02:21.620Z,100167.91
2022-12-22T20:04:49.782Z,100154.03
2022-12-22T20:07:18.880Z,100162.72
2022-12-22T20:09:46.065Z,100172.25
2022-12-22T20:12:35.557Z,100173.97
2022-12-22T20:15:24.157Z,100167.03
2022-12-22T20:17:53.846Z,100168.81
2022-12-22T20:20:35.223Z,100159.28
2022-12-22T20:23:06.979Z,100156.69
2022-12-22T20:25:40.949Z,100170.53
2022-12-22T20:28:30.033Z,100165.34
2022-12-22T20:30:57.947Z,100166.22
2022-12-22T20:33:26.635Z,100168.81
2022-12-22T20:35:55.751Z,100180.97
2022-12-22T20:38:38.832Z,100186.16
2022-12-22T20:41:09.104Z,100182.69
2022-12-22T20:43:38.082Z,100185.28
2022-12-22T20:46:25.029Z,100179.25
2022-12-22T20:49:02.103Z,100176.66
2022-12-22T20:51:32.508Z,100172.31
2022-12-22T20:54:00.470Z,100187.91
2022-12-22T20:56:53.713Z,100189.63
2022-12-22T20:59:23.259Z,100198.28
2022-12-22T21:01:52.905Z,100187.03
2022-12-22T21:04:19.991Z,100196.56
2022-12-22T21:06:51.319Z,100185.31
2022-12-22T21:09:18.204Z,100186.16
2022-12-22T21:11:45.282Z,100192.22
2022-12-22T21:14:12.920Z,100193.94
2022-12-22T21:16:40.997Z,100187.91
2022-12-22T21:19:07.938Z,100200.88
2022-12-22T21:21:34.899Z,100183.53
2022-12-22T21:24:01.845Z,100200.00
2022-12-22T21:26:38.077Z,100183.56
2022-12-22T21:29:09.436Z,100188.75
2022-12-22T21:31:36.351Z,100174.06
2022-12-22T21:34:03.226Z,100172.31
2022-12-22T21:36:33.462Z,100180.97
2022-12-22T21:39:06.342Z,100168.00
2022-12-22T21:41:52.132Z,100155.88
2022-12-22T21:44:19.023Z,100155.88
2022-12-22T21:46:46.979Z,100152.41
2022-12-22T21:49:23.309Z,100167.13
2022-12-22T21:51:52.494Z,100168.84
2022-12-22T21:54:22.328Z,100167.13
2022-12-22T21:56:50.798Z,100165.38
2022-12-22T21:59:17.956Z,100167.13
2022-12-22T22:01:45.345Z,100161.91
2022-12-22T22:04:13.075Z,100175.75
2022-12-22T22:06:39.985Z,100175.75
2022-12-22T22:09:07.222Z,100174.03
2022-12-22T22:11:54.583Z,100167.09
2022-12-22T22:14:22.080Z,100168.84
2022-12-22T22:16:49.435Z,100165.38
2022-12-22T22:19:17.823Z,100169.72
2022-12-22T22:21:47.992Z,100164.50
2022-12-22T22:24:14.918Z,100163.66
2022-12-22T22:26:49.062Z,100169.72
2022-12-22T22:29:15.936Z,100167.13
2022-12-22T22:31:42.952Z,100162.78
2022-12-22T22:34:09.872Z,100167.13
2022-12-22T22:36:36.765Z,100161.09
2022-12-22T22:39:03.695Z,100156.75
2022-12-22T22:41:34.186Z,100156.78
2022-12-22T22:44:04.695Z,100149.81
2022-12-22T22:46:31.660Z,100148.13
2022-12-22T22:48:58.771Z,100135.13
2022-12-22T22:51:25.828Z,100148.09
2022-12-22T22:53:52.755Z,100157.63
2022-12-22T22:56:19.633Z,100157.63
2022-12-22T22:58:46.530Z,100159.34
2022-12-22T23:01:14.389Z,100156.72
2022-12-22T23:03:41.390Z,100159.31
2022-12-22T23:06:11.892Z,100161.94
2022-12-22T23:08:39.166Z,100160.19
2022-12-22T23:11:12.748Z,100155.84
2022-12-22T23:13:39.630Z,100159.31
2022-12-22T23:16:06.573Z,100153.22
2022-12-22T23:18:33.794Z,100153.22
2022-12-22T23:21:03.902Z,100141.13
2022-12-22T23:23:32.459Z,100142.00
2022-12-22T23:25:59.710Z,100130.72
2022-12-22T23:28:26.595Z,100140.22
2022-12-22T23:30:53.781Z,100141.09
2022-12-22T23:33:21.649Z,100133.31
2022-12-22T23:35:50.126Z,100128.13
2022-12-22T23:38:20.514Z,100128.97
2022-12-22T23:40:52.881Z,100133.28
2022-12-22T23:43:20.995Z,100130.69
2022-12-22T23:45:47.881Z,100123.78
2022-12-22T23:48:14.937Z,100116.00
2022-12-22T23:50:41.926Z,100116.00
2022-12-22T23:53:08.869Z,100109.94
2022-12-22T23:55:35.747Z,100108.22
2022-12-22T23:58:02.647Z,100107.34
